Time;durP1;ratioP1;P1;durP2;ratioP2;P2;SDS_P1;SDS_P2;PMS_P1;PMS_P2;Temp;Humidity;BMP_temperature;BMP_pressure;BME280_temperature;BME280_humidity;BME280_pressure;Samples;Min_cycle;Max_cycle;Signal;HPM_P1;HPM_P2
2022/03/13 00:02:26;;;;;;;;;;;10.70;69.50;;;;;;5050704;28;19925;-77
2022/03/13 00:04:56;;;;;;;;;;;10.70;69.70;;;;;;5056218;28;19932;-76
2022/03/13 00:07:24;;;;;;;;;;;10.80;70.00;;;;;;5054143;28;19925;-76
2022/03/13 00:09:52;;;;;;;;;;;10.70;70.00;;;;;;5055036;28;19988;-76
2022/03/13 00:12:26;;;;;;;;;;;10.70;69.90;;;;;;5050136;28;19931;-76
2022/03/13 00:14:55;;;;;;;;;;;10.80;70.10;;;;;;5039667;28;19929;-76
2022/03/13 00:17:29;;;;;;;;;;;10.60;70.10;;;;;;5050092;28;19925;-77
2022/03/13 00:20:00;;;;;;;;;;;10.60;70.40;;;;;;5054407;28;19925;-76
2022/03/13 00:22:27;;;;;;;;;;;10.60;70.50;;;;;;5054959;28;19979;-76
2022/03/13 00:24:56;;;;;;;;;;;10.60;70.70;;;;;;5055906;28;19925;-76
2022/03/13 00:27:23;;;;;;;;;;;10.60;71.00;;;;;;5054665;28;19983;-76
2022/03/13 00:29:49;;;;;;;;;;;10.60;71.00;;;;;;5054005;28;19924;-77
2022/03/13 00:32:19;;;;;;;;;;;10.60;71.10;;;;;;5050844;28;19959;-77
2022/03/13 00:34:46;;;;;;;;;;;10.70;71.40;;;;;;5052679;28;19925;-76
2022/03/13 00:37:12;;;;;;;;;;;10.60;71.00;;;;;;5051961;28;20348;-76
2022/03/13 00:39:40;;;;;;;;;;;10.60;71.10;;;;;;5054417;28;19931;-76
2022/03/13 00:42:08;;;;;;;;;;;10.60;70.90;;;;;;5051206;28;19928;-76
2022/03/13 00:44:35;;;;;;;;;;;10.60;71.10;;;;;;5052233;28;19925;-75
2022/03/13 00:47:02;;;;;;;;;;;10.70;71.10;;;;;;5050458;28;19928;-75
2022/03/13 00:49:28;;;;;;;;;;;10.60;71.20;;;;;;5052848;28;19931;-75
2022/03/13 00:51:57;;;;;;;;;;;10.70;71.30;;;;;;5047418;28;19925;-75
2022/03/13 00:54:24;;;;;;;;;;;10.60;71.30;;;;;;5053794;28;20332;-75
2022/03/13 00:56:51;;;;;;;;;;;10.70;71.70;;;;;;5050160;28;20026;-76
2022/03/13 00:59:19;;;;;;;;;;;10.60;71.90;;;;;;5053580;28;20355;-75
2022/03/13 01:01:46;;;;;;;;;;;10.60;72.40;;;;;;5048869;28;19968;-75
2022/03/13 01:04:12;;;;;;;;;;;10.70;72.80;;;;;;5052534;28;20023;-76
2022/03/13 01:06:40;;;;;;;;;;;10.70;73.00;;;;;;5047815;28;19931;-75
2022/03/13 01:09:07;;;;;;;;;;;10.60;73.30;;;;;;5052114;28;19931;-75
2022/03/13 01:11:33;;;;;;;;;;;10.60;73.30;;;;;;5052485;28;19925;-76
2022/03/13 01:14:00;;;;;;;;;;;10.60;73.90;;;;;;5052940;28;19925;-77
2022/03/13 01:16:30;;;;;;;;;;;10.60;74.20;;;;;;5053886;28;19931;-78
2022/03/13 01:18:58;;;;;;;;;;;10.60;74.60;;;;;;5052824;28;19929;-76
2022/03/13 01:21:25;;;;;;;;;;;10.60;75.00;;;;;;5035783;28;19925;-76
2022/03/13 01:24:11;;;;;;;;;;;10.60;75.40;;;;;;5049147;28;20391;-77
2022/03/13 01:26:38;;;;;;;;;;;10.50;75.60;;;;;;5049203;28;20011;-76
2022/03/13 01:29:06;;;;;;;;;;;10.50;75.90;;;;;;5052559;28;19940;-76
2022/03/13 01:31:36;;;;;;;;;;;10.50;76.10;;;;;;5051166;28;20358;-76
2022/03/13 01:34:03;;;;;;;;;;;10.50;76.40;;;;;;5050997;28;19925;-76
2022/03/13 01:36:29;;;;;;;;;;;10.50;76.70;;;;;;5044180;28;20297;-75
2022/03/13 01:38:57;;;;;;;;;;;10.50;77.00;;;;;;5043324;28;19931;-76
2022/03/13 01:41:24;;;;;;;;;;;10.50;77.20;;;;;;5052473;28;20000;-77
2022/03/13 01:43:52;;;;;;;;;;;10.50;77.30;;;;;;5051359;28;19931;-76
2022/03/13 01:46:19;;;;;;;;;;;10.50;77.70;;;;;;5041828;28;19925;-76
2022/03/13 01:48:53;;;;;;;;;;;10.50;77.90;;;;;;5050964;28;20012;-76
2022/03/13 01:51:20;;;;;;;;;;;10.50;77.90;;;;;;5051975;28;19970;-76
2022/03/13 01:53:47;;;;;;;;;;;10.50;78.10;;;;;;5052873;28;19935;-76
2022/03/13 01:56:13;;;;;;;;;;;10.50;78.30;;;;;;5047285;28;19939;-76
2022/03/13 01:58:40;;;;;;;;;;;10.50;78.60;;;;;;5050784;28;19931;-76
2022/03/13 02:01:08;;;;;;;;;;;10.50;78.80;;;;;;5044621;28;20017;-76
2022/03/13 02:03:35;;;;;;;;;;;10.50;79.00;;;;;;5037935;28;20003;-76
2022/03/13 02:06:03;;;;;;;;;;;10.50;79.30;;;;;;5045221;28;19961;-76
2022/03/13 02:08:29;;;;;;;;;;;10.50;79.40;;;;;;5051618;28;19932;-76
2022/03/13 02:10:59;;;;;;;;;;;10.60;79.60;;;;;;5050347;28;19925;-76
2022/03/13 02:13:27;;;;;;;;;;;10.60;79.90;;;;;;5050796;28;19928;-76
2022/03/13 02:15:55;;;;;;;;;;;10.60;80.10;;;;;;5040913;28;20447;-76
2022/03/13 02:18:21;;;;;;;;;;;10.60;80.10;;;;;;5033521;28;20388;-76
2022/03/13 02:20:48;;;;;;;;;;;10.50;80.60;;;;;;5044848;28;19932;-75
2022/03/13 02:23:18;;;;;;;;;;;10.60;80.80;;;;;;5032318;28;20392;-76
2022/03/13 02:25:48;;;;;;;;;;;10.60;81.30;;;;;;5042811;28;19925;-76
2022/03/13 02:28:14;;;;;;;;;;;10.50;81.50;;;;;;5050558;28;19987;-76
2022/03/13 02:30:41;;;;;;;;;;;10.50;81.70;;;;;;5048642;28;19929;-76
2022/03/13 02:33:08;;;;;;;;;;;10.50;82.20;;;;;;5052548;28;19925;-76
2022/03/13 02:35:34;;;;;;;;;;;10.50;82.50;;;;;;5041600;28;20020;-76
2022/03/13 02:38:01;;;;;;;;;;;10.50;82.80;;;;;;5051745;28;19925;-76
2022/03/13 02:40:29;;;;;;;;;;;10.50;82.90;;;;;;5046922;28;19925;-76
2022/03/13 02:42:58;;;;;;;;;;;10.50;82.90;;;;;;5051277;28;19929;-77
2022/03/13 02:45:28;;;;;;;;;;;10.50;83.20;;;;;;5047758;28;19933;-76
2022/03/13 02:47:55;;;;;;;;;;;10.40;83.40;;;;;;5032177;28;19950;-76
2022/03/13 02:50:22;;;;;;;;;;;10.50;83.80;;;;;;5046518;28;19988;-76
2022/03/13 02:52:49;;;;;;;;;;;10.40;84.00;;;;;;5039838;28;19925;-76
2022/03/13 02:55:15;;;;;;;;;;;10.40;84.30;;;;;;5046162;28;19925;-76
2022/03/13 02:57:44;;;;;;;;;;;10.40;84.50;;;;;;5032045;28;20394;-75
2022/03/13 03:00:11;;;;;;;;;;;10.40;84.90;;;;;;5048726;28;19932;-75
2022/03/13 03:02:37;;;;;;;;;;;10.40;85.30;;;;;;5039233;28;20007;-75
2022/03/13 03:05:06;;;;;;;;;;;10.30;85.70;;;;;;5050210;28;19940;-76
2022/03/13 03:07:32;;;;;;;;;;;10.30;86.10;;;;;;5048224;28;19929;-76
2022/03/13 03:09:59;;;;;;;;;;;10.30;86.50;;;;;;5051152;28;20015;-74
2022/03/13 03:12:27;;;;;;;;;;;10.30;87.10;;;;;;5044994;28;20039;-74
2022/03/13 03:14:55;;;;;;;;;;;10.30;87.50;;;;;;5045850;28;19975;-74
2022/03/13 03:17:22;;;;;;;;;;;10.30;88.00;;;;;;5043872;28;21372;-75
2022/03/13 03:19:49;;;;;;;;;;;10.30;88.70;;;;;;5049455;28;19933;-75
2022/03/13 03:22:15;;;;;;;;;;;10.30;89.30;;;;;;5048453;28;20391;-76
2022/03/13 03:24:42;;;;;;;;;;;10.30;89.90;;;;;;5048643;28;19931;-77
2022/03/13 03:27:09;;;;;;;;;;;10.20;90.10;;;;;;5047885;28;19924;-76
2022/03/13 03:29:35;;;;;;;;;;;10.20;90.50;;;;;;5050331;28;20020;-76
2022/03/13 03:32:04;;;;;;;;;;;9.90;91.10;;;;;;5049057;28;19932;-76
2022/03/13 03:34:31;;;;;;;;;;;10.20;91.00;;;;;;5046077;28;19933;-76
2022/03/13 03:36:58;;;;;;;;;;;10.20;91.20;;;;;;5048810;28;19932;-76
2022/03/13 03:39:26;;;;;;;;;;;10.20;91.40;;;;;;5049917;28;19968;-76
2022/03/13 03:41:53;;;;;;;;;;;10.20;91.60;;;;;;5046613;28;19931;-77
2022/03/13 03:44:20;;;;;;;;;;;10.20;91.90;;;;;;5050032;28;19925;-76
2022/03/13 03:46:47;;;;;;;;;;;10.20;91.90;;;;;;5046285;28;19925;-76
2022/03/13 03:49:15;;;;;;;;;;;10.20;91.90;;;;;;5048941;28;20011;-76
2022/03/13 03:51:43;;;;;;;;;;;10.20;92.00;;;;;;5045052;28;19925;-75
2022/03/13 03:54:11;;;;;;;;;;;10.30;92.10;;;;;;5047544;28;19925;-76
2022/03/13 03:56:38;;;;;;;;;;;10.20;92.10;;;;;;5046276;28;19931;-75
2022/03/13 03:59:05;;;;;;;;;;;10.20;92.10;;;;;;5047254;28;20446;-76
2022/03/13 04:01:36;;;;;;;;;;;10.20;92.20;;;;;;5047811;28;19967;-75
2022/03/13 04:04:04;;;;;;;;;;;10.30;92.30;;;;;;5047582;28;20330;-75
2022/03/13 04:06:33;;;;;;;;;;;10.30;92.40;;;;;;5044345;28;19976;-76
2022/03/13 04:08:59;;;;;;;;;;;10.30;92.20;;;;;;5048820;28;19929;-76
2022/03/13 04:11:26;;;;;;;;;;;10.30;92.30;;;;;;5041531;28;19967;-77
2022/03/13 04:13:53;;;;;;;;;;;10.30;92.40;;;;;;5050847;28;20411;-76
2022/03/13 04:16:20;;;;;;;;;;;10.30;92.40;;;;;;5046561;28;19925;-76
2022/03/13 04:18:47;;;;;;;;;;;10.30;92.50;;;;;;5046689;28;19931;-76
2022/03/13 04:21:15;;;;;;;;;;;10.30;92.60;;;;;;5047202;28;19933;-76
2022/03/13 04:23:43;;;;;;;;;;;10.20;92.80;;;;;;5045448;28;19964;-75
2022/03/13 04:26:09;;;;;;;;;;;10.20;93.10;;;;;;5045129;28;19931;-77
2022/03/13 04:28:36;;;;;;;;;;;10.20;93.20;;;;;;5046500;28;19925;-76
2022/03/13 04:31:05;;;;;;;;;;;10.10;93.40;;;;;;5050393;28;20039;-77
2022/03/13 04:33:34;;;;;;;;;;;10.10;93.50;;;;;;5049006;28;20027;-77
2022/03/13 04:36:05;;;;;;;;;;;10.10;93.60;;;;;;5044751;28;19925;-77
2022/03/13 04:38:32;;;;;;;;;;;10.00;93.70;;;;;;5044400;28;19955;-77
2022/03/13 04:40:59;;;;;;;;;;;10.00;93.70;;;;;;5041244;28;19929;-76
2022/03/13 04:43:27;;;;;;;;;;;10.00;93.90;;;;;;5042448;28;19924;-77
2022/03/13 04:45:53;;;;;;;;;;;10.00;93.90;;;;;;5048144;28;19925;-78
2022/03/13 04:48:20;;;;;;;;;;;10.00;94.00;;;;;;5045518;28;23028;-77
2022/03/13 04:50:47;;;;;;;;;;;9.90;95.00;;;;;;5040318;28;19929;-77
2022/03/13 04:53:14;;;;;;;;;;;9.80;95.40;;;;;;5040899;28;20409;-77
2022/03/13 04:55:41;;;;;;;;;;;9.70;95.60;;;;;;5043379;28;19924;-76
2022/03/13 04:58:10;;;;;;;;;;;9.70;95.70;;;;;;5047160;28;19955;-77
2022/03/13 05:00:37;;;;;;;;;;;9.80;95.80;;;;;;5046340;28;19940;-78
2022/03/13 05:03:04;;;;;;;;;;;9.70;95.80;;;;;;5035929;28;19968;-78
2022/03/13 05:05:31;;;;;;;;;;;9.60;96.00;;;;;;5041753;28;20044;-78
2022/03/13 05:07:58;;;;;;;;;;;9.60;96.20;;;;;;5043763;28;20734;-78
2022/03/13 05:10:29;;;;;;;;;;;9.50;96.40;;;;;;5045899;28;19924;-78
2022/03/13 05:12:55;;;;;;;;;;;9.60;96.40;;;;;;5048345;28;20439;-77
2022/03/13 05:15:23;;;;;;;;;;;9.60;96.30;;;;;;5041803;28;19933;-78
2022/03/13 05:17:50;;;;;;;;;;;9.50;96.40;;;;;;5045696;28;19925;-77
2022/03/13 05:20:18;;;;;;;;;;;9.50;96.50;;;;;;5041878;28;19925;-77
2022/03/13 05:22:44;;;;;;;;;;;9.50;96.40;;;;;;5046672;28;19966;-78
2022/03/13 05:25:11;;;;;;;;;;;9.40;96.50;;;;;;5045374;28;19942;-78
2022/03/13 05:27:37;;;;;;;;;;;9.40;96.60;;;;;;5043633;28;19929;-78
2022/03/13 05:30:05;;;;;;;;;;;9.30;96.60;;;;;;5046478;28;19925;-76
2022/03/13 05:32:34;;;;;;;;;;;9.30;96.70;;;;;;5047005;28;19924;-77
2022/03/13 05:35:01;;;;;;;;;;;9.30;96.80;;;;;;5050048;28;19932;-75
2022/03/13 05:37:28;;;;;;;;;;;9.20;97.00;;;;;;5047293;28;20034;-74
2022/03/13 05:39:55;;;;;;;;;;;9.10;97.10;;;;;;5045795;28;19932;-74
2022/03/13 05:42:24;;;;;;;;;;;9.10;97.50;;;;;;5046184;28;20015;-74
2022/03/13 05:44:51;;;;;;;;;;;9.00;97.80;;;;;;5043755;28;20399;-75
2022/03/13 05:47:18;;;;;;;;;;;9.00;98.20;;;;;;5046633;28;19925;-75
2022/03/13 05:49:46;;;;;;;;;;;8.90;98.50;;;;;;5039956;28;19931;-76
2022/03/13 05:52:15;;;;;;;;;;;8.80;99.00;;;;;;5046468;28;19931;-76
2022/03/13 05:54:41;;;;;;;;;;;8.80;99.40;;;;;;5040340;28;19933;-75
2022/03/13 05:57:10;;;;;;;;;;;8.70;99.80;;;;;;5045674;28;19929;-76
2022/03/13 05:59:36;;;;;;;;;;;8.80;99.90;;;;;;5046398;28;20035;-75
2022/03/13 06:02:04;;;;;;;;;;;8.80;99.90;;;;;;5039468;28;19936;-76
2022/03/13 06:04:32;;;;;;;;;;;8.70;99.90;;;;;;5045202;28;20463;-75
2022/03/13 06:07:00;;;;;;;;;;;8.60;99.90;;;;;;5041508;28;19928;-76
2022/03/13 06:09:26;;;;;;;;;;;8.70;99.90;;;;;;5044614;28;20409;-76
2022/03/13 06:11:53;;;;;;;;;;;8.60;99.90;;;;;;5042750;28;19983;-77
2022/03/13 06:14:20;;;;;;;;;;;8.60;99.90;;;;;;5041393;28;19948;-76
2022/03/13 06:16:46;;;;;;;;;;;8.60;99.90;;;;;;5041985;28;19936;-75
2022/03/13 06:19:13;;;;;;;;;;;8.60;99.90;;;;;;5046268;28;19929;-76
2022/03/13 06:21:42;;;;;;;;;;;8.70;99.90;;;;;;5045662;28;19931;-76
2022/03/13 06:24:10;;;;;;;;;;;8.80;99.90;;;;;;5046691;28;19925;-76
2022/03/13 06:26:37;;;;;;;;;;;8.90;99.90;;;;;;5041477;28;19928;-76
2022/03/13 06:29:03;;;;;;;;;;;8.90;99.90;;;;;;5045660;28;19924;-77
2022/03/13 06:31:30;;;;;;;;;;;9.00;99.90;;;;;;5043859;28;19976;-76
2022/03/13 06:33:57;;;;;;;;;;;8.90;99.90;;;;;;5043567;28;20395;-76
2022/03/13 06:36:24;;;;;;;;;;;8.90;99.90;;;;;;5037178;28;20524;-77
2022/03/13 06:38:50;;;;;;;;;;;8.90;99.90;;;;;;5041055;28;19925;-77
2022/03/13 06:41:19;;;;;;;;;;;8.90;99.90;;;;;;5040466;28;19960;-76
2022/03/13 06:43:46;;;;;;;;;;;9.00;99.90;;;;;;5046179;28;20046;-77
2022/03/13 06:46:13;;;;;;;;;;;8.90;99.90;;;;;;5037714;28;19932;-78
2022/03/13 06:48:40;;;;;;;;;;;8.90;99.90;;;;;;5048849;28;19925;-78
2022/03/13 06:51:06;;;;;;;;;;;8.70;99.90;;;;;;5046249;28;19960;-78
2022/03/13 06:53:35;;;;;;;;;;;8.80;99.90;;;;;;5047544;28;20308;-78
2022/03/13 06:56:01;;;;;;;;;;;8.70;99.90;;;;;;5042167;28;19925;-76
2022/03/13 06:58:29;;;;;;;;;;;8.70;99.90;;;;;;5045522;28;20319;-77
2022/03/13 07:00:56;;;;;;;;;;;8.70;99.90;;;;;;5044140;28;20016;-77
2022/03/13 07:03:23;;;;;;;;;;;8.80;99.90;;;;;;5041869;28;19925;-76
2022/03/13 07:05:49;;;;;;;;;;;8.80;99.90;;;;;;5046538;28;19924;-76
2022/03/13 07:08:16;;;;;;;;;;;8.80;99.90;;;;;;5045140;28;19925;-77
2022/03/13 07:10:43;;;;;;;;;;;8.90;99.90;;;;;;5045263;28;19925;-75
2022/03/13 07:13:10;;;;;;;;;;;9.00;99.90;;;;;;5048451;28;19932;-74
2022/03/13 07:15:39;;;;;;;;;;;9.00;99.90;;;;;;5049050;28;19933;-76
2022/03/13 07:18:06;;;;;;;;;;;9.00;99.80;;;;;;5045797;28;20024;-75
2022/03/13 07:20:32;;;;;;;;;;;9.00;99.80;;;;;;5038853;28;19925;-74
2022/03/13 07:22:59;;;;;;;;;;;9.20;99.70;;;;;;5039018;28;19925;-74
2022/03/13 07:25:26;;;;;;;;;;;9.20;99.60;;;;;;5044751;28;20404;-74
2022/03/13 07:27:53;;;;;;;;;;;9.30;99.20;;;;;;5045336;28;19932;-76
2022/03/13 07:30:19;;;;;;;;;;;9.40;98.90;;;;;;5041948;28;19937;-75
2022/03/13 07:32:47;;;;;;;;;;;9.60;98.60;;;;;;5044899;28;19924;-75
2022/03/13 07:35:14;;;;;;;;;;;9.70;98.30;;;;;;5046456;28;19939;-74
2022/03/13 07:37:41;;;;;;;;;;;9.80;97.80;;;;;;5042844;28;20294;-74
2022/03/13 07:40:08;;;;;;;;;;;9.90;97.80;;;;;;5041805;28;19926;-75
2022/03/13 07:42:35;;;;;;;;;;;10.00;96.80;;;;;;5044435;28;19925;-75
2022/03/13 07:45:01;;;;;;;;;;;10.10;96.40;;;;;;5037603;28;20436;-77
2022/03/13 07:47:30;;;;;;;;;;;10.20;96.00;;;;;;5045066;28;20017;-81
2022/03/13 07:49:59;;;;;;;;;;;10.40;95.50;;;;;;5044599;28;20023;-78
2022/03/13 07:52:25;;;;;;;;;;;10.50;94.50;;;;;;5050419;28;19939;-74
2022/03/13 07:54:52;;;;;;;;;;;11.10;94.00;;;;;;5046582;28;19933;-74
2022/03/13 07:57:19;;;;;;;;;;;13.00;90.90;;;;;;5047101;28;20004;-74
2022/03/13 07:59:47;;;;;;;;;;;14.30;81.00;;;;;;5046804;28;19968;-73
2022/03/13 08:02:13;;;;;;;;;;;14.90;73.10;;;;;;5041414;28;19925;-73
2022/03/13 08:04:40;;;;;;;;;;;16.10;68.40;;;;;;5049230;28;19964;-74
2022/03/13 08:07:08;;;;;;;;;;;16.10;61.50;;;;;;5044696;28;19931;-73
2022/03/13 08:09:35;;;;;;;;;;;17.10;59.70;;;;;;5046454;28;19932;-74
2022/03/13 08:12:02;;;;;;;;;;;17.60;54.10;;;;;;5043258;28;19924;-74
2022/03/13 08:14:28;;;;;;;;;;;18.30;52.90;;;;;;5044877;28;19933;-75
2022/03/13 08:16:55;;;;;;;;;;;18.40;50.10;;;;;;5048443;28;19931;-74
2022/03/13 08:19:22;;;;;;;;;;;18.10;49.00;;;;;;5047515;28;19968;-73
2022/03/13 08:21:48;;;;;;;;;;;18.40;48.50;;;;;;5040002;28;19931;-72
2022/03/13 08:24:17;;;;;;;;;;;18.80;47.50;;;;;;5040881;28;19964;-71
2022/03/13 08:26:44;;;;;;;;;;;20.20;43.90;;;;;;5043339;28;20319;-71
2022/03/13 08:29:11;;;;;;;;;;;21.00;39.10;;;;;;5049221;28;20485;-72
2022/03/13 08:31:38;;;;;;;;;;;20.30;39.20;;;;;;5040662;28;19948;-73
2022/03/13 08:34:07;;;;;;;;;;;20.00;38.50;;;;;;5047274;28;20312;-72
2022/03/13 08:36:34;;;;;;;;;;;20.40;38.10;;;;;;5040045;28;19929;-73
2022/03/13 08:39:01;;;;;;;;;;;20.90;36.90;;;;;;5038266;28;19936;-72
2022/03/13 08:41:29;;;;;;;;;;;21.00;34.70;;;;;;5037730;28;20019;-72
2022/03/13 08:43:55;;;;;;;;;;;21.00;34.80;;;;;;5042366;28;19950;-73
2022/03/13 08:46:23;;;;;;;;;;;20.80;34.20;;;;;;5035812;28;19928;-73
2022/03/13 08:48:50;;;;;;;;;;;21.30;33.30;;;;;;5042309;28;19986;-72
2022/03/13 08:51:18;;;;;;;;;;;21.80;31.70;;;;;;5046244;28;20023;-73
2022/03/13 08:53:45;;;;;;;;;;;21.70;30.70;;;;;;5038949;28;19937;-72
2022/03/13 08:56:13;;;;;;;;;;;20.40;32.20;;;;;;5037292;28;19925;-73
2022/03/13 08:58:41;;;;;;;;;;;20.50;31.60;;;;;;5033567;28;20052;-73
2022/03/13 09:01:08;;;;;;;;;;;19.80;32.00;;;;;;5035759;28;19925;-73
2022/03/13 09:03:35;;;;;;;;;;;19.80;33.40;;;;;;5041155;28;20311;-74
2022/03/13 09:06:02;;;;;;;;;;;19.50;35.20;;;;;;5037103;28;19983;-74
2022/03/13 09:08:29;;;;;;;;;;;19.60;33.90;;;;;;5043119;28;19932;-73
2022/03/13 09:10:56;;;;;;;;;;;19.60;33.10;;;;;;5039919;28;19925;-73
2022/03/13 09:13:23;;;;;;;;;;;18.50;35.20;;;;;;5043996;28;19978;-74
2022/03/13 09:15:51;;;;;;;;;;;18.20;36.00;;;;;;5039969;28;19971;-73
2022/03/13 09:18:18;;;;;;;;;;;17.40;37.10;;;;;;5042590;28;19939;-74
2022/03/13 09:20:45;;;;;;;;;;;17.80;37.60;;;;;;5050601;28;19925;-74
2022/03/13 09:23:12;;;;;;;;;;;18.10;36.40;;;;;;5043114;28;19931;-74
2022/03/13 09:25:38;;;;;;;;;;;18.70;35.70;;;;;;5042829;28;20062;-74
2022/03/13 09:28:05;;;;;;;;;;;18.80;35.30;;;;;;5048573;28;19936;-74
2022/03/13 09:30:32;;;;;;;;;;;19.20;34.60;;;;;;5036454;28;19932;-72
2022/03/13 09:33:01;;;;;;;;;;;19.50;34.10;;;;;;5050091;28;20011;-73
2022/03/13 09:35:28;;;;;;;;;;;19.80;32.20;;;;;;5047983;28;19955;-73
2022/03/13 09:37:55;;;;;;;;;;;19.10;33.50;;;;;;5048117;28;19932;-73
2022/03/13 09:40:22;;;;;;;;;;;19.00;33.90;;;;;;5044684;28;19925;-73
2022/03/13 09:42:49;;;;;;;;;;;19.10;33.70;;;;;;5038940;28;19933;-72
2022/03/13 09:45:15;;;;;;;;;;;19.40;33.20;;;;;;5048487;28;19924;-72
2022/03/13 09:47:42;;;;;;;;;;;20.20;32.10;;;;;;5031435;28;19932;-73
2022/03/13 09:50:12;;;;;;;;;;;19.80;30.80;;;;;;5034801;28;19925;-73
2022/03/13 09:52:40;;;;;;;;;;;18.40;33.40;;;;;;5036131;28;19933;-73
2022/03/13 09:55:07;;;;;;;;;;;17.00;38.10;;;;;;5046031;28;19932;-73
2022/03/13 09:57:36;;;;;;;;;;;16.50;39.60;;;;;;5042519;28;19937;-73
2022/03/13 10:00:05;;;;;;;;;;;16.10;40.70;;;;;;5040690;28;20012;-74
2022/03/13 10:02:35;;;;;;;;;;;15.70;41.80;;;;;;5040474;28;19925;-74
2022/03/13 10:05:05;;;;;;;;;;;15.40;42.40;;;;;;5038824;28;20219;-74
2022/03/13 10:07:50;;;;;;;;;;;15.00;43.30;;;;;;5039474;28;19998;-74
2022/03/13 10:10:17;;;;;;;;;;;14.80;44.40;;;;;;5036108;28;20020;-74
2022/03/13 10:12:46;;;;;;;;;;;14.80;45.10;;;;;;5042059;28;20295;-73
2022/03/13 10:15:13;;;;;;;;;;;14.70;44.60;;;;;;5041385;28;19925;-73
2022/03/13 10:17:41;;;;;;;;;;;14.80;44.90;;;;;;5041039;28;19928;-74
2022/03/13 10:20:14;;;;;;;;;;;14.90;44.30;;;;;;5043975;28;19925;-73
2022/03/13 10:22:42;;;;;;;;;;;15.00;44.10;;;;;;5035366;28;20002;-73
2022/03/13 10:25:11;;;;;;;;;;;15.10;44.10;;;;;;5041949;28;20420;-74
2022/03/13 10:27:38;;;;;;;;;;;15.20;43.90;;;;;;5041182;28;19932;-73
2022/03/13 10:30:07;;;;;;;;;;;15.30;43.20;;;;;;5040280;28;19931;-73
2022/03/13 10:32:34;;;;;;;;;;;15.30;42.80;;;;;;5039317;28;19924;-73
2022/03/13 10:35:01;;;;;;;;;;;15.10;43.20;;;;;;5040461;28;19931;-73
2022/03/13 10:37:35;;;;;;;;;;;15.00;43.30;;;;;;5029363;28;19924;-73
2022/03/13 10:40:13;;;;;;;;;;;15.20;43.60;;;;;;5036095;28;19996;-73
2022/03/13 10:42:43;;;;;;;;;;;15.20;43.00;;;;;;5042163;28;19925;-74
2022/03/13 10:45:10;;;;;;;;;;;15.20;42.80;;;;;;5030607;28;19925;-74
2022/03/13 10:47:37;;;;;;;;;;;15.30;43.30;;;;;;5032045;28;19929;-74
2022/03/13 10:50:06;;;;;;;;;;;15.30;43.30;;;;;;5033639;28;19933;-74
2022/03/13 10:52:36;;;;;;;;;;;15.30;43.10;;;;;;5040360;28;19925;-75
2022/03/13 10:55:17;;;;;;;;;;;15.40;43.40;;;;;;5040320;28;19931;-75
2022/03/13 10:57:47;;;;;;;;;;;15.40;43.20;;;;;;5034849;28;19972;-75
2022/03/13 11:00:16;;;;;;;;;;;15.40;43.40;;;;;;5034819;28;19976;-75
2022/03/13 11:02:42;;;;;;;;;;;15.50;43.30;;;;;;5035130;28;19932;-75
2022/03/13 11:05:09;;;;;;;;;;;15.60;42.50;;;;;;5033577;28;19964;-73
2022/03/13 11:07:37;;;;;;;;;;;15.60;42.20;;;;;;5034045;28;20349;-73
2022/03/13 11:10:06;;;;;;;;;;;15.80;42.40;;;;;;5038780;28;19925;-74
2022/03/13 11:12:34;;;;;;;;;;;15.80;41.50;;;;;;5039230;28;19931;-74
2022/03/13 11:15:02;;;;;;;;;;;15.70;41.80;;;;;;5029587;28;20038;-74
2022/03/13 11:17:30;;;;;;;;;;;15.70;42.10;;;;;;5042667;28;19932;-73
2022/03/13 11:20:00;;;;;;;;;;;15.60;41.80;;;;;;5036755;28;20000;-74
2022/03/13 11:22:27;;;;;;;;;;;15.60;42.20;;;;;;5044128;28;20020;-75
2022/03/13 11:24:56;;;;;;;;;;;15.70;42.10;;;;;;5038897;28;20176;-75
2022/03/13 11:27:24;;;;;;;;;;;16.00;41.10;;;;;;5039598;28;19995;-74
2022/03/13 11:29:53;;;;;;;;;;;15.80;40.60;;;;;;5046372;28;19932;-74
2022/03/13 11:32:33;;;;;;;;;;;15.80;40.90;;;;;;5042953;28;19936;-74
2022/03/13 11:35:19;;;;;;;;;;;15.80;41.30;;;;;;5042395;28;19971;-74
2022/03/13 11:37:46;;;;;;;;;;;15.90;40.60;;;;;;5037734;28;19931;-75
2022/03/13 11:40:14;;;;;;;;;;;16.00;40.30;;;;;;5040943;28;20421;-74
2022/03/13 11:42:48;;;;;;;;;;;16.00;40.50;;;;;;5039544;28;19925;-75
2022/03/13 11:45:34;;;;;;;;;;;16.10;40.10;;;;;;5046235;28;20407;-75
2022/03/13 11:48:19;;;;;;;;;;;16.10;40.10;;;;;;5043759;28;19925;-73
2022/03/13 11:50:48;;;;;;;;;;;16.20;40.60;;;;;;5043180;28;19925;-74
2022/03/13 11:53:15;;;;;;;;;;;16.40;40.50;;;;;;5041645;28;20021;-72
2022/03/13 11:55:57;;;;;;;;;;;16.30;39.10;;;;;;5039984;28;20273;-73
2022/03/13 11:58:38;;;;;;;;;;;16.30;38.70;;;;;;5044080;28;20020;-74
2022/03/13 12:01:08;;;;;;;;;;;16.30;39.10;;;;;;5041141;28;19925;-74
2022/03/13 12:03:35;;;;;;;;;;;16.30;38.80;;;;;;5039555;28;19967;-73
2022/03/13 12:06:04;;;;;;;;;;;16.30;38.70;;;;;;5039768;28;19939;-74
2022/03/13 12:08:50;;;;;;;;;;;16.20;39.50;;;;;;5032989;28;19952;-73
2022/03/13 12:11:38;;;;;;;;;;;16.30;39.70;;;;;;5028532;28;20026;-74
2022/03/13 12:14:07;;;;;;;;;;;16.30;39.30;;;;;;5042044;28;19978;-73
2022/03/13 12:16:33;;;;;;;;;;;16.20;39.30;;;;;;5038752;28;19925;-73
2022/03/13 12:19:00;;;;;;;;;;;16.00;39.30;;;;;;5034615;28;19925;-74
2022/03/13 12:21:28;;;;;;;;;;;16.00;39.70;;;;;;5037632;28;19932;-73
2022/03/13 12:23:58;;;;;;;;;;;16.00;39.80;;;;;;5040412;28;19925;-73
2022/03/13 12:26:29;;;;;;;;;;;16.00;39.90;;;;;;5037267;28;19932;-73
2022/03/13 12:28:57;;;;;;;;;;;16.20;39.70;;;;;;5037290;28;20019;-74
2022/03/13 12:31:24;;;;;;;;;;;16.20;39.70;;;;;;5042442;28;19933;-74
2022/03/13 12:33:51;;;;;;;;;;;16.10;40.00;;;;;;5041726;28;19929;-71
2022/03/13 12:36:19;;;;;;;;;;;16.10;40.50;;;;;;5040244;28;19932;-74
2022/03/13 12:38:49;;;;;;;;;;;16.30;40.30;;;;;;5047337;28;19932;-74
2022/03/13 12:41:16;;;;;;;;;;;16.20;39.10;;;;;;5050231;28;19928;-74
2022/03/13 12:43:47;;;;;;;;;;;16.20;38.80;;;;;;5051270;28;19931;-73
2022/03/13 12:46:16;;;;;;;;;;;16.20;38.90;;;;;;5044285;28;19925;-74
2022/03/13 12:48:49;;;;;;;;;;;16.20;38.30;;;;;;5046880;28;19928;-74
2022/03/13 12:51:30;;;;;;;;;;;16.20;38.10;;;;;;5048974;28;20013;-74
2022/03/13 12:53:58;;;;;;;;;;;16.40;37.80;;;;;;5032482;28;19936;-73
2022/03/13 12:56:27;;;;;;;;;;;16.60;37.90;;;;;;5043743;28;20011;-71
2022/03/13 12:58:54;;;;;;;;;;;16.90;38.00;;;;;;5051871;28;19978;-72
2022/03/13 13:01:21;;;;;;;;;;;16.90;37.40;;;;;;5044974;28;20392;-72
2022/03/13 13:03:50;;;;;;;;;;;16.80;37.50;;;;;;5046473;28;19946;-75
2022/03/13 13:06:28;;;;;;;;;;;16.70;37.70;;;;;;5034156;28;19932;-71
2022/03/13 13:08:54;;;;;;;;;;;16.70;36.80;;;;;;5049139;28;19935;-71
2022/03/13 13:11:29;;;;;;;;;;;16.60;36.50;;;;;;5049266;28;20015;-69
2022/03/13 13:13:59;;;;;;;;;;;16.70;36.10;;;;;;5051899;28;19928;-69
2022/03/13 13:16:28;;;;;;;;;;;16.80;36.50;;;;;;5044176;28;19924;-69
2022/03/13 13:18:55;;;;;;;;;;;17.00;36.70;;;;;;5050118;28;19928;-69
2022/03/13 13:21:32;;;;;;;;;;;17.10;36.50;;;;;;5049258;28;19977;-70
2022/03/13 13:23:59;;;;;;;;;;;17.20;36.40;;;;;;5049045;28;19984;-72
2022/03/13 13:26:42;;;;;;;;;;;17.10;36.20;;;;;;5040331;28;20024;-73
2022/03/13 13:29:09;;;;;;;;;;;17.00;35.80;;;;;;5049819;28;20020;-73
2022/03/13 13:31:36;;;;;;;;;;;16.80;36.60;;;;;;5049297;28;19990;-74
2022/03/13 13:34:15;;;;;;;;;;;16.60;36.70;;;;;;5050709;28;19925;-78
2022/03/13 13:36:42;;;;;;;;;;;16.60;36.90;;;;;;5042896;28;20447;-77
2022/03/13 13:39:10;;;;;;;;;;;16.60;36.40;;;;;;5049364;28;19960;-76
2022/03/13 13:41:39;;;;;;;;;;;16.40;37.00;;;;;;5044192;28;20031;-79
2022/03/13 13:44:07;;;;;;;;;;;16.30;36.80;;;;;;5042975;28;19925;-78
2022/03/13 13:46:33;;;;;;;;;;;16.30;37.50;;;;;;5046650;28;19931;-76
2022/03/13 13:49:01;;;;;;;;;;;16.40;37.20;;;;;;5049429;28;19935;-76
2022/03/13 13:51:35;;;;;;;;;;;16.30;37.20;;;;;;5041214;28;20410;-77
2022/03/13 13:54:20;;;;;;;;;;;16.40;37.30;;;;;;5039158;28;19924;-78
2022/03/13 13:56:52;;;;;;;;;;;16.50;37.10;;;;;;5044268;28;19940;-76
2022/03/13 13:59:24;;;;;;;;;;;16.40;37.50;;;;;;5047875;28;20276;-77
2022/03/13 14:01:52;;;;;;;;;;;16.40;37.40;;;;;;5047568;28;19925;-78
2022/03/13 14:04:19;;;;;;;;;;;16.60;37.80;;;;;;5050378;28;19925;-78
2022/03/13 14:06:47;;;;;;;;;;;16.50;37.80;;;;;;5041576;28;20382;-76
2022/03/13 14:09:13;;;;;;;;;;;16.70;38.00;;;;;;5046434;28;19925;-74
2022/03/13 14:11:42;;;;;;;;;;;16.80;37.10;;;;;;5048648;28;19975;-74
2022/03/13 14:14:09;;;;;;;;;;;17.10;36.80;;;;;;5050625;28;19979;-74
2022/03/13 14:16:38;;;;;;;;;;;17.30;36.00;;;;;;5048576;28;19986;-74
2022/03/13 14:19:05;;;;;;;;;;;17.40;35.70;;;;;;5044800;28;19987;-74
2022/03/13 14:21:33;;;;;;;;;;;17.30;35.80;;;;;;5039777;28;20483;-74
2022/03/13 14:23:59;;;;;;;;;;;17.40;35.90;;;;;;5033091;28;19928;-75
2022/03/13 14:26:26;;;;;;;;;;;17.20;36.00;;;;;;5036674;28;19925;-74